createdAt,value
2023-03-06T00:00:34.163Z,9.55
2023-03-06T00:03:01.034Z,9.88
2023-03-06T00:05:27.883Z,10.60
2023-03-06T00:07:54.441Z,9.77
2023-03-06T00:10:24.020Z,10.45
2023-03-06T00:12:55.736Z,11.52
2023-03-06T00:15:23.548Z,10.20
2023-03-06T00:17:50.106Z,10.50
2023-03-06T00:20:17.191Z,9.93
2023-03-06T00:22:44.181Z,11.40
2023-03-06T00:25:14.375Z,12.05
2023-03-06T00:27:41.131Z,11.48
2023-03-06T00:30:10.534Z,11.23
2023-03-06T00:32:37.094Z,11.40
2023-03-06T00:35:04.031Z,10.98
2023-03-06T00:37:30.633Z,11.60
2023-03-06T00:39:57.091Z,11.73
2023-03-06T00:42:23.624Z,11.13
2023-03-06T00:44:50.088Z,12.40
2023-03-06T00:47:19.644Z,12.93
2023-03-06T00:49:46.310Z,14.75
2023-03-06T00:52:13.659Z,13.32
2023-03-06T00:54:40.701Z,13.52
2023-03-06T00:57:07.893Z,13.23
2023-03-06T00:59:34.756Z,13.98
2023-03-06T01:02:01.633Z,14.75
2023-03-06T01:04:28.226Z,13.25
2023-03-06T01:06:54.640Z,13.90
2023-03-06T01:09:21.229Z,14.15
2023-03-06T01:11:47.721Z,12.73
2023-03-06T01:14:14.212Z,13.45
2023-03-06T01:16:40.889Z,14.02
2023-03-06T01:19:07.460Z,14.40
2023-03-06T01:21:34.026Z,14.95
2023-03-06T01:24:00.479Z,14.90
2023-03-06T01:26:26.987Z,13.93
2023-03-06T01:28:53.632Z,14.27
2023-03-06T01:31:20.136Z,15.25
2023-03-06T01:33:46.593Z,15.48
2023-03-06T01:36:13.165Z,15.63
2023-03-06T01:38:39.735Z,15.05
2023-03-06T01:41:07.238Z,15.88
2023-03-06T01:43:36.331Z,15.32
2023-03-06T01:46:24.789Z,14.95
2023-03-06T01:48:59.675Z,16.23
2023-03-06T01:51:33.447Z,15.32
2023-03-06T01:54:04.908Z,16.23
2023-03-06T01:56:31.750Z,16.10
2023-03-06T01:58:59.620Z,15.95
2023-03-06T02:01:26.776Z,15.48
2023-03-06T02:03:55.220Z,15.25
2023-03-06T02:06:21.912Z,14.77
2023-03-06T02:08:51.578Z,15.02
2023-03-06T02:11:21.876Z,15.90
2023-03-06T02:13:51.492Z,14.95
2023-03-06T02:16:22.238Z,15.68
2023-03-06T02:18:49.004Z,15.25
2023-03-06T02:21:22.035Z,15.18
2023-03-06T02:23:48.443Z,15.35
2023-03-06T02:26:16.459Z,15.77
2023-03-06T02:28:43.201Z,16.23
2023-03-06T02:31:21.476Z,15.95
2023-03-06T02:34:20.339Z,16.17
2023-03-06T02:36:53.338Z,12.05
2023-03-06T02:39:25.920Z,10.05
2023-03-06T02:41:52.662Z,14.27
2023-03-06T02:44:19.648Z,14.93
2023-03-06T02:46:46.146Z,14.00
2023-03-06T02:49:12.652Z,14.32
2023-03-06T02:51:39.128Z,14.18
2023-03-06T02:54:05.730Z,15.35
2023-03-06T02:56:32.247Z,14.52
2023-03-06T02:58:58.768Z,13.18
2023-03-06T03:01:25.299Z,12.93
2023-03-06T03:03:52.013Z,12.27
2023-03-06T03:06:18.486Z,11.77
2023-03-06T03:08:44.977Z,14.00
2023-03-06T03:11:12.253Z,16.38
2023-03-06T03:13:38.914Z,16.10
2023-03-06T03:16:11.177Z,16.48
2023-03-06T03:18:37.702Z,15.85
2023-03-06T03:21:08.695Z,16.77
2023-03-06T03:23:35.197Z,14.43
2023-03-06T03:26:15.860Z,16.45
2023-03-06T03:28:42.826Z,15.50
2023-03-06T03:31:10.986Z,16.90
2023-03-06T03:33:37.724Z,14.25
2023-03-06T03:36:06.482Z,15.00
2023-03-06T03:38:33.427Z,14.93
2023-03-06T03:41:03.911Z,16.65
2023-03-06T03:43:30.615Z,15.77
2023-03-06T03:45:57.082Z,16.25
2023-03-06T03:48:23.569Z,16.35
2023-03-06T03:50:50.075Z,16.58
2023-03-06T03:53:16.942Z,15.57
2023-03-06T03:55:43.418Z,18.73
2023-03-06T03:58:09.899Z,17.13
2023-03-06T04:00:36.370Z,18.13
2023-03-06T04:03:02.834Z,17.13
2023-03-06T04:05:29.303Z,19.10
2023-03-06T04:07:55.736Z,19.88
2023-03-06T04:10:22.196Z,16.98
2023-03-06T04:12:48.653Z,16.08
2023-03-06T04:15:15.098Z,17.83
2023-03-06T04:17:41.675Z,15.65
2023-03-06T04:20:08.926Z,18.85
2023-03-06T04:22:35.450Z,18.55
2023-03-06T04:25:02.015Z,18.73
2023-03-06T04:27:28.530Z,17.55
2023-03-06T04:29:56.308Z,17.70
2023-03-06T04:32:23.879Z,20.52
2023-03-06T04:34:50.459Z,17.67
2023-03-06T04:37:22.376Z,17.42
2023-03-06T04:39:49.124Z,18.45
2023-03-06T04:42:16.018Z,19.90
2023-03-06T04:44:42.909Z,16.75
2023-03-06T04:47:09.767Z,18.88
2023-03-06T04:49:36.332Z,19.42
2023-03-06T04:52:03.467Z,13.57
2023-03-06T04:54:30.136Z,17.45
2023-03-06T04:56:57.337Z,17.70
2023-03-06T04:59:23.937Z,19.05
2023-03-06T05:01:50.740Z,18.10
2023-03-06T05:04:17.248Z,16.67
2023-03-06T05:06:43.769Z,12.98
2023-03-06T05:09:10.439Z,17.08
2023-03-06T05:11:37.000Z,14.57
2023-03-06T05:14:03.456Z,15.80
2023-03-06T05:16:29.984Z,20.42
2023-03-06T05:18:56.542Z,16.23
2023-03-06T05:21:23.065Z,18.95
2023-03-06T05:23:49.609Z,19.48
2023-03-06T05:26:16.353Z,19.75
2023-03-06T05:28:42.915Z,20.48
2023-03-06T05:31:09.438Z,15.52
2023-03-06T05:33:36.707Z,19.35
2023-03-06T05:36:03.411Z,17.90
2023-03-06T05:38:29.974Z,17.48
2023-03-06T05:40:56.448Z,15.68
2023-03-06T05:43:22.897Z,17.02
2023-03-06T05:45:51.896Z,17.65
2023-03-06T05:48:18.832Z,15.68
2023-03-06T05:50:45.267Z,17.17
2023-03-06T05:53:11.672Z,16.95
2023-03-06T05:55:38.184Z,15.13
2023-03-06T05:58:04.617Z,13.70
2023-03-06T06:00:31.179Z,14.05
2023-03-06T06:03:02.106Z,15.35
2023-03-06T06:07:54.911Z,12.57
2023-03-06T06:10:21.404Z,15.82
2023-03-06T06:12:47.965Z,16.00
2023-03-06T06:15:15.378Z,17.38
2023-03-06T06:17:41.836Z,14.65
2023-03-06T06:20:11.347Z,16.48
2023-03-06T06:22:38.197Z,14.98
2023-03-06T06:25:07.393Z,15.82
2023-03-06T06:27:33.915Z,13.90
2023-03-06T06:30:00.379Z,13.38
2023-03-06T06:32:26.889Z,18.23
2023-03-06T06:34:53.389Z,15.70
2023-03-06T06:37:19.900Z,16.45
2023-03-06T06:39:46.367Z,17.42
2023-03-06T06:42:30.467Z,17.95
2023-03-06T06:44:58.145Z,16.83
2023-03-06T06:47:25.754Z,17.73
2023-03-06T06:49:54.234Z,15.88
2023-03-06T06:52:21.067Z,16.48
2023-03-06T06:54:47.648Z,18.42
2023-03-06T06:57:14.596Z,15.40
2023-03-06T06:59:42.444Z,16.73
2023-03-06T07:02:12.559Z,15.82
2023-03-06T07:04:52.403Z,15.38
2023-03-06T07:07:26.602Z,14.55
2023-03-06T07:09:53.073Z,16.02
2023-03-06T07:12:19.545Z,15.93
2023-03-06T07:14:46.835Z,14.45
2023-03-06T07:17:13.552Z,17.02
2023-03-06T07:19:39.990Z,17.52
2023-03-06T07:22:07.614Z,20.08
2023-03-06T07:24:34.261Z,18.75
2023-03-06T07:27:00.781Z,22.52
2023-03-06T07:29:27.268Z,22.58
2023-03-06T07:31:53.751Z,22.33
2023-03-06T07:34:20.207Z,21.55
2023-03-06T07:36:46.794Z,22.83
2023-03-06T07:39:13.257Z,21.80
2023-03-06T07:41:39.765Z,25.38
2023-03-06T07:44:06.322Z,23.27
2023-03-06T07:46:34.305Z,21.70
2023-03-06T07:49:00.840Z,22.10
2023-03-06T07:51:27.974Z,23.00
2023-03-06T07:53:54.421Z,23.23
2023-03-06T07:56:20.981Z,23.05
2023-03-06T07:58:48.189Z,21.17
2023-03-06T08:01:17.414Z,22.50
2023-03-06T08:03:44.582Z,24.10
2023-03-06T08:06:13.700Z,23.70
2023-03-06T08:08:42.180Z,23.20
2023-03-06T08:11:10.672Z,22.52
2023-03-06T08:13:38.465Z,21.05
2023-03-06T08:16:05.475Z,22.55
2023-03-06T08:18:32.294Z,22.10
2023-03-06T08:21:13.820Z,22.90
2023-03-06T08:23:40.958Z,22.70
2023-03-06T08:26:34.027Z,21.95
2023-03-06T08:29:02.211Z,24.88
2023-03-06T08:31:40.350Z,23.38
2023-03-06T08:34:09.611Z,23.20
2023-03-06T08:36:36.511Z,23.63
2023-03-06T08:39:03.737Z,22.48
2023-03-06T08:41:30.510Z,22.67
2023-03-06T08:43:57.210Z,34.60
2023-03-06T08:46:25.430Z,23.58
2023-03-06T08:48:52.263Z,23.35
2023-03-06T08:51:19.767Z,23.20
2023-03-06T08:53:46.640Z,21.60
2023-03-06T08:56:20.248Z,21.55
2023-03-06T08:58:47.707Z,23.05
2023-03-06T09:01:20.261Z,24.05
2023-03-06T09:03:47.675Z,25.08
2023-03-06T09:06:14.534Z,22.67
2023-03-06T09:08:43.173Z,24.65
2023-03-06T09:11:14.807Z,23.35
2023-03-06T09:13:44.493Z,23.50
2023-03-06T09:16:11.777Z,22.27
2023-03-06T09:18:38.516Z,22.08
2023-03-06T09:21:06.940Z,21.88
2023-03-06T09:23:34.104Z,21.98
2023-03-06T09:26:01.919Z,20.92
2023-03-06T09:28:28.746Z,21.77
2023-03-06T09:30:55.475Z,21.35
2023-03-06T09:33:22.855Z,20.40
2023-03-06T09:35:53.210Z,19.92
2023-03-06T09:38:22.173Z,18.92
2023-03-06T09:41:22.076Z,18.08
2023-03-06T09:43:52.311Z,16.95
2023-03-06T09:46:40.160Z,17.55
2023-03-06T09:49:35.114Z,17.90
2023-03-06T09:52:38.499Z,16.40
2023-03-06T09:55:05.087Z,15.23
2023-03-06T09:57:36.773Z,16.23
2023-03-06T10:00:12.952Z,15.10
2023-03-06T10:02:48.270Z,15.45
2023-03-06T10:05:24.084Z,15.70
2023-03-06T10:08:17.677Z,16.63
2023-03-06T10:10:50.833Z,16.58
2023-03-06T10:13:50.405Z,15.55
2023-03-06T10:16:33.226Z,16.63
2023-03-06T10:19:03.092Z,17.63
2023-03-06T10:22:02.135Z,16.50
2023-03-06T10:24:52.335Z,14.48
2023-03-06T10:27:31.678Z,15.15
2023-03-06T10:30:19.929Z,15.73
2023-03-06T10:32:57.823Z,19.73
2023-03-06T10:35:32.633Z,19.60
2023-03-06T10:38:24.012Z,19.70
2023-03-06T10:41:12.089Z,18.23
2023-03-06T10:43:43.901Z,19.30
2023-03-06T10:46:13.043Z,18.77
2023-03-06T10:48:42.344Z,17.30
2023-03-06T10:51:24.113Z,17.50
2023-03-06T10:53:58.545Z,15.88
2023-03-06T10:56:37.105Z,17.75
2023-03-06T10:59:11.306Z,16.02
2023-03-06T11:01:38.870Z,15.25
2023-03-06T11:04:37.692Z,17.45
2023-03-06T11:07:20.625Z,15.32
2023-03-06T11:10:19.476Z,16.30
2023-03-06T11:13:19.338Z,14.65
2023-03-06T11:15:59.769Z,14.70
2023-03-06T11:18:38.719Z,13.82
2023-03-06T11:21:24.171Z,15.20
2023-03-06T11:23:52.050Z,14.65
2023-03-06T11:26:20.105Z,15.18
2023-03-06T11:29:06.581Z,13.55
2023-03-06T11:31:54.514Z,14.95
2023-03-06T11:34:42.439Z,16.20
2023-03-06T11:37:34.128Z,16.17
2023-03-06T11:40:19.123Z,16.00
2023-03-06T11:43:21.053Z,16.42
2023-03-06T11:46:10.284Z,17.38
2023-03-06T11:48:47.833Z,15.43
2023-03-06T11:51:19.977Z,16.15
2023-03-06T11:53:49.196Z,15.40
2023-03-06T11:56:18.617Z,16.00
2023-03-06T11:59:08.089Z,18.10
2023-03-06T12:01:41.091Z,18.10
2023-03-06T12:04:34.215Z,18.33
2023-03-06T12:07:28.902Z,18.05
2023-03-06T12:09:58.225Z,16.17
2023-03-06T12:12:41.172Z,16.83
2023-03-06T12:15:11.025Z,16.55
2023-03-06T12:17:56.104Z,13.23
2023-03-06T12:20:31.329Z,15.88
2023-03-06T12:23:15.386Z,16.42
2023-03-06T12:26:14.544Z,15.25
2023-03-06T12:28:51.468Z,15.45
2023-03-06T12:31:33.747Z,17.75
2023-03-06T12:34:09.314Z,16.30
2023-03-06T12:36:41.697Z,16.50
2023-03-06T12:39:14.163Z,14.80
2023-03-06T12:42:11.442Z,13.07
2023-03-06T12:45:26.246Z,13.98
2023-03-06T12:50:30.979Z,14.25
2023-03-06T12:53:02.180Z,14.60
2023-03-06T12:55:37.599Z,14.70
2023-03-06T12:58:31.912Z,15.05
2023-03-06T13:01:13.865Z,15.40
2023-03-06T13:04:17.367Z,13.57
2023-03-06T13:07:02.117Z,14.15
2023-03-06T13:09:53.795Z,12.32
2023-03-06T13:12:35.923Z,13.90
2023-03-06T13:15:39.801Z,13.68
2023-03-06T13:18:28.064Z,9.80
2023-03-06T13:20:58.354Z,14.02
2023-03-06T13:23:33.991Z,13.63
2023-03-06T13:26:02.172Z,12.55
2023-03-06T13:28:46.045Z,13.73
2023-03-06T13:31:26.574Z,13.35
2023-03-06T13:33:55.570Z,13.45
2023-03-06T13:36:30.809Z,10.60
2023-03-06T13:38:57.589Z,10.95
2023-03-06T13:41:24.834Z,15.07
2023-03-06T13:43:59.743Z,14.32
2023-03-06T13:46:35.256Z,16.25
2023-03-06T13:49:07.659Z,12.35
2023-03-06T13:51:53.484Z,14.77
2023-03-06T13:54:38.701Z,15.40
2023-03-06T13:57:33.490Z,14.88
2023-03-06T14:00:44.094Z,17.48
2023-03-06T14:03:10.579Z,16.55
2023-03-06T14:05:48.870Z,17.90
2023-03-06T14:08:18.787Z,17.02
2023-03-06T14:10:48.249Z,17.77
2023-03-06T14:13:23.226Z,18.17
2023-03-06T14:15:52.662Z,18.15
2023-03-06T14:18:31.337Z,18.35
2023-03-06T14:21:01.204Z,16.10
2023-03-06T14:23:35.471Z,17.20
2023-03-06T14:26:19.977Z,16.50
2023-03-06T14:28:58.439Z,15.80
2023-03-06T14:31:28.980Z,16.65
2023-03-06T14:33:57.310Z,14.68
2023-03-06T14:36:31.062Z,15.50
2023-03-06T14:39:02.543Z,14.23
2023-03-06T14:41:32.161Z,14.95
2023-03-06T14:44:27.944Z,14.10
2023-03-06T14:46:56.435Z,12.80
2023-03-06T14:49:25.995Z,14.25
2023-03-06T14:52:00.833Z,13.98
2023-03-06T14:54:33.786Z,13.20
2023-03-06T14:57:08.582Z,13.45
2023-03-06T14:59:45.550Z,14.27
2023-03-06T15:02:22.879Z,13.68
2023-03-06T15:04:55.101Z,14.93
2023-03-06T15:07:32.870Z,14.02
2023-03-06T15:10:00.669Z,14.02
2023-03-06T15:12:27.250Z,15.35
2023-03-06T15:14:59.462Z,14.15
2023-03-06T15:17:26.278Z,14.75
2023-03-06T15:19:55.794Z,14.18
2023-03-06T15:22:38.953Z,13.00
2023-03-06T15:25:21.220Z,12.40
2023-03-06T15:27:55.877Z,11.55
2023-03-06T15:30:28.709Z,12.60
2023-03-06T15:33:20.091Z,12.40
2023-03-06T15:35:57.021Z,12.93
2023-03-06T15:38:45.495Z,11.68
2023-03-06T15:41:34.116Z,12.85
2023-03-06T15:44:03.133Z,12.48
2023-03-06T15:46:30.096Z,11.77
2023-03-06T15:49:03.155Z,12.73
2023-03-06T15:51:31.867Z,12.10
2023-03-06T15:54:11.359Z,12.32
2023-03-06T15:56:44.688Z,12.00
2023-03-06T15:59:21.724Z,11.63
2023-03-06T16:01:49.501Z,11.52
2023-03-06T16:04:17.115Z,11.77
2023-03-06T16:06:45.919Z,12.55
2023-03-06T16:09:13.756Z,11.65
2023-03-06T16:11:47.104Z,12.40
2023-03-06T16:14:24.144Z,12.55
2023-03-06T16:19:29.028Z,12.18
2023-03-06T16:21:56.659Z,10.70
2023-03-06T16:24:26.256Z,12.68
2023-03-06T16:26:54.920Z,11.75
2023-03-06T16:29:23.798Z,12.68
2023-03-06T16:31:51.264Z,12.38
2023-03-06T16:34:21.523Z,13.50
2023-03-06T16:36:49.419Z,12.85
2023-03-06T16:39:18.510Z,12.88
2023-03-06T16:41:49.445Z,13.20
2023-03-06T16:46:47.921Z,14.73
2023-03-06T16:49:25.465Z,13.82
2023-03-06T16:51:53.442Z,13.32
2023-03-06T16:54:21.830Z,13.80
2023-03-06T16:56:48.798Z,14.25
2023-03-06T16:59:15.632Z,14.38
2023-03-06T17:01:44.961Z,14.57
2023-03-06T17:04:11.773Z,14.02
2023-03-06T17:06:38.691Z,14.40
2023-03-06T17:09:05.319Z,14.40
2023-03-06T17:11:32.205Z,13.00
2023-03-06T17:13:58.916Z,14.02
2023-03-06T17:16:25.668Z,12.02
2023-03-06T17:18:52.724Z,14.63
2023-03-06T17:21:19.674Z,14.25
2023-03-06T17:23:46.619Z,14.02
2023-03-06T17:26:18.202Z,14.30
2023-03-06T17:28:45.891Z,15.13
2023-03-06T17:31:18.760Z,14.77
2023-03-06T17:33:45.962Z,15.85
2023-03-06T17:36:14.594Z,14.43
2023-03-06T17:38:42.568Z,15.23
2023-03-06T17:41:11.441Z,15.02
2023-03-06T17:43:39.390Z,14.25
2023-03-06T17:46:10.980Z,15.23
2023-03-06T17:48:38.214Z,15.38
2023-03-06T17:51:05.591Z,15.77
2023-03-06T17:53:32.402Z,15.40
2023-03-06T17:55:59.358Z,14.50
2023-03-06T17:58:26.865Z,13.65
2023-03-06T18:00:53.875Z,14.20
2023-03-06T18:03:21.044Z,13.35
2023-03-06T18:05:47.649Z,14.38
2023-03-06T18:08:14.304Z,13.85
2023-03-06T18:10:42.527Z,12.80
2023-03-06T18:13:09.804Z,13.07
2023-03-06T18:15:40.716Z,14.23
2023-03-06T18:20:35.248Z,12.80
2023-03-06T18:23:03.799Z,13.15
2023-03-06T18:25:31.812Z,13.05
2023-03-06T18:27:59.003Z,13.82
2023-03-06T18:30:25.785Z,13.00
2023-03-06T18:32:52.345Z,12.50
2023-03-06T18:35:18.916Z,13.10
2023-03-06T18:37:45.677Z,13.13
2023-03-06T18:40:13.388Z,12.85
2023-03-06T18:42:40.136Z,13.02
2023-03-06T18:45:07.505Z,12.02
2023-03-06T18:47:34.103Z,12.50
2023-03-06T18:50:02.799Z,12.18
2023-03-06T18:52:29.722Z,13.27
2023-03-06T18:54:56.364Z,13.05
2023-03-06T18:57:23.234Z,12.90
2023-03-06T18:59:50.070Z,13.10
2023-03-06T19:02:16.936Z,13.02
2023-03-06T19:04:43.510Z,13.50
2023-03-06T19:07:10.144Z,13.63
2023-03-06T19:09:36.912Z,13.48
2023-03-06T19:12:03.731Z,13.63
2023-03-06T19:14:30.931Z,13.23
2023-03-06T19:16:57.386Z,12.55
2023-03-06T19:19:26.883Z,12.85
2023-03-06T19:21:53.804Z,13.55
2023-03-06T19:24:20.390Z,12.52
2023-03-06T19:26:47.140Z,13.32
2023-03-06T19:29:13.652Z,13.13
2023-03-06T19:31:40.669Z,12.65
2023-03-06T19:34:07.241Z,12.20
2023-03-06T19:36:34.338Z,13.48
2023-03-06T19:39:06.314Z,12.32
2023-03-06T19:41:33.669Z,12.43
2023-03-06T19:44:03.321Z,13.25
2023-03-06T19:46:31.697Z,13.32
2023-03-06T19:49:03.326Z,12.73
2023-03-06T19:51:30.153Z,13.63
2023-03-06T19:53:57.685Z,12.60
2023-03-06T19:56:29.034Z,13.65
2023-03-06T19:58:56.368Z,12.93
2023-03-06T20:01:24.971Z,13.55
2023-03-06T20:03:59.231Z,13.55
2023-03-06T20:06:29.048Z,13.65
2023-03-06T20:08:55.809Z,13.75
2023-03-06T20:11:29.935Z,13.05
2023-03-06T20:13:58.777Z,13.15
2023-03-06T20:16:32.467Z,13.38
2023-03-06T20:19:00.535Z,13.63
2023-03-06T20:21:29.217Z,13.45
2023-03-06T20:23:57.020Z,13.90
2023-03-06T20:26:24.332Z,14.48
2023-03-06T20:28:51.014Z,14.45
2023-03-06T20:31:20.052Z,13.95
2023-03-06T20:33:49.012Z,13.95
2023-03-06T20:36:28.895Z,13.95
2023-03-06T20:38:56.708Z,13.52
2023-03-06T20:41:25.856Z,14.13
2023-03-06T20:43:52.776Z,14.90
2023-03-06T20:46:20.759Z,14.43
2023-03-06T20:48:49.599Z,13.45
2023-03-06T20:51:21.664Z,14.90
2023-03-06T20:53:49.377Z,14.98
2023-03-06T20:56:19.347Z,15.18
2023-03-06T20:58:45.961Z,14.10
2023-03-06T21:01:23.294Z,14.80
2023-03-06T21:03:50.429Z,13.98
2023-03-06T21:06:17.807Z,16.05
2023-03-06T21:08:44.597Z,17.38
2023-03-06T21:11:11.258Z,16.10
2023-03-06T21:13:37.887Z,17.20
2023-03-06T21:16:10.631Z,15.77
2023-03-06T21:18:37.387Z,15.80
2023-03-06T21:21:12.704Z,16.08
2023-03-06T21:23:39.609Z,16.65
2023-03-06T21:26:06.404Z,15.73
2023-03-06T21:28:33.438Z,16.67
2023-03-06T21:31:01.200Z,16.95
2023-03-06T21:33:27.982Z,17.00
2023-03-06T21:35:54.831Z,17.10
2023-03-06T21:38:21.378Z,17.38
2023-03-06T21:40:47.896Z,16.55
2023-03-06T21:43:15.805Z,17.25
2023-03-06T21:45:47.105Z,17.30
2023-03-06T21:48:15.146Z,15.68
2023-03-06T21:50:42.479Z,17.20
2023-03-06T21:53:09.546Z,15.50
2023-03-06T21:55:40.502Z,16.88
2023-03-06T22:00:36.222Z,16.02
2023-03-06T22:03:04.670Z,15.52
2023-03-06T22:05:33.908Z,16.15
2023-03-06T22:08:00.339Z,14.52
2023-03-06T22:10:26.976Z,14.60
2023-03-06T22:12:53.417Z,14.70
2023-03-06T22:15:21.815Z,14.73
2023-03-06T22:17:48.650Z,14.85
2023-03-06T22:20:15.433Z,14.70
2023-03-06T22:22:42.302Z,14.20
2023-03-06T22:25:09.322Z,14.13
2023-03-06T22:27:35.855Z,14.50
2023-03-06T22:30:02.428Z,14.10
2023-03-06T22:32:28.958Z,13.23
2023-03-06T22:34:55.477Z,13.50
2023-03-06T22:37:22.061Z,13.77
2023-03-06T22:39:48.564Z,13.70
2023-03-06T22:42:15.254Z,14.07
2023-03-06T22:44:41.754Z,13.45
2023-03-06T22:47:08.260Z,13.63
2023-03-06T22:49:34.776Z,12.40
2023-03-06T22:52:01.303Z,13.50
2023-03-06T22:54:27.889Z,13.70
2023-03-06T22:56:54.422Z,14.43
2023-03-06T22:59:21.050Z,13.15
2023-03-06T23:01:47.617Z,13.55
2023-03-06T23:04:14.338Z,13.13
2023-03-06T23:06:43.204Z,12.82
2023-03-06T23:09:21.868Z,12.63
2023-03-06T23:11:49.753Z,12.05
2023-03-06T23:14:17.271Z,11.30
2023-03-06T23:16:44.437Z,11.82
2023-03-06T23:19:11.402Z,10.73
2023-03-06T23:21:37.939Z,11.25
2023-03-06T23:24:05.441Z,10.65
2023-03-06T23:26:34.079Z,11.35
2023-03-06T23:29:01.253Z,11.07
2023-03-06T23:31:29.860Z,10.05
2023-03-06T23:34:01.869Z,10.88
2023-03-06T23:36:29.125Z,9.98
2023-03-06T23:38:56.170Z,10.35
2023-03-06T23:41:23.636Z,9.80
2023-03-06T23:43:51.968Z,10.18
2023-03-06T23:46:19.497Z,10.05
2023-03-06T23:48:46.289Z,10.30
2023-03-06T23:51:18.605Z,10.40
2023-03-06T23:53:46.157Z,9.98
2023-03-06T23:56:13.298Z,10.02
2023-03-06T23:58:40.703Z,9.68
